createdAt,value
2022-12-18T00:01:27.160Z,72.43
2022-12-18T00:03:55.507Z,72.61
2022-12-18T00:06:23.320Z,72.55
2022-12-18T00:08:50.291Z,72.43
2022-12-18T00:11:23.408Z,72.54
2022-12-18T00:13:50.711Z,72.33
2022-12-18T00:16:23.231Z,72.55
2022-12-18T00:18:51.633Z,72.46
2022-12-18T00:21:19.228Z,72.52
2022-12-18T00:23:48.159Z,72.27
2022-12-18T00:26:24.535Z,72.62
2022-12-18T00:28:53.057Z,72.68
2022-12-18T00:31:22.719Z,72.53
2022-12-18T00:33:52.630Z,72.61
2022-12-18T00:36:24.733Z,72.51
2022-12-18T00:38:54.020Z,72.60
2022-12-18T00:41:40.532Z,72.75
2022-12-18T00:44:10.464Z,72.75
2022-12-18T00:46:37.356Z,72.41
2022-12-18T00:49:05.075Z,72.22
2022-12-18T00:51:31.798Z,72.46
2022-12-18T00:53:58.693Z,72.39
2022-12-18T00:56:26.063Z,72.69
2022-12-18T00:58:53.484Z,72.79
2022-12-18T01:01:20.823Z,72.76
2022-12-18T01:03:47.876Z,72.72
2022-12-18T01:06:17.772Z,72.54
2022-12-18T01:08:45.839Z,72.84
2022-12-18T01:11:18.728Z,72.88
2022-12-18T01:13:45.806Z,72.83
2022-12-18T01:16:15.367Z,72.78
2022-12-18T01:18:42.196Z,73.02
2022-12-18T01:21:11.991Z,73.29
2022-12-18T01:23:39.388Z,73.33
2022-12-18T01:26:08.893Z,73.38
2022-12-18T01:28:36.477Z,72.94
2022-12-18T01:31:18.003Z,72.92
2022-12-18T01:33:45.833Z,72.92
2022-12-18T01:36:20.683Z,73.00
2022-12-18T01:38:48.715Z,72.82
2022-12-18T01:41:18.167Z,72.80
2022-12-18T01:43:57.945Z,73.06
2022-12-18T01:46:25.914Z,72.83
2022-12-18T01:48:57.643Z,72.89
2022-12-18T01:51:26.673Z,72.82
2022-12-18T01:53:53.474Z,72.65
2022-12-18T01:56:22.116Z,72.52
2022-12-18T01:59:03.292Z,72.49
2022-12-18T02:01:32.130Z,72.38
2022-12-18T02:04:21.263Z,72.52
2022-12-18T02:06:55.164Z,72.44
2022-12-18T02:09:34.483Z,72.59
2022-12-18T02:12:09.868Z,72.48
2022-12-18T02:14:50.231Z,72.67
2022-12-18T02:17:28.208Z,72.60
2022-12-18T02:20:07.139Z,72.56
2022-12-18T02:23:04.720Z,72.26
2022-12-18T02:26:09.156Z,72.05
2022-12-18T02:28:48.517Z,71.86
2022-12-18T02:31:22.472Z,71.63
2022-12-18T02:33:52.329Z,71.66
2022-12-18T02:36:21.195Z,71.78
2022-12-18T02:38:49.368Z,71.79
2022-12-18T02:41:17.888Z,72.41
2022-12-18T02:43:56.121Z,72.49
2022-12-18T02:46:32.304Z,72.33
2022-12-18T02:49:17.324Z,72.16
2022-12-18T02:52:01.325Z,71.98
2022-12-18T02:54:28.052Z,71.76
2022-12-18T02:56:59.006Z,71.46
2022-12-18T02:59:36.475Z,71.61
2022-12-18T03:02:18.885Z,71.42
2022-12-18T03:04:52.039Z,71.33
2022-12-18T03:07:27.576Z,71.52
2022-12-18T03:09:56.694Z,71.09
2022-12-18T03:12:33.639Z,71.29
2022-12-18T03:15:17.837Z,71.38
2022-12-18T03:17:54.255Z,71.25
2022-12-18T03:20:24.769Z,71.86
2022-12-18T03:22:56.326Z,72.10
2022-12-18T03:25:24.077Z,72.57
2022-12-18T03:27:59.088Z,72.34
2022-12-18T03:30:30.427Z,72.31
2022-12-18T03:33:12.503Z,72.44
2022-12-18T03:35:43.871Z,72.46
2022-12-18T03:38:12.321Z,72.25
2022-12-18T03:40:46.213Z,72.18
2022-12-18T03:43:23.606Z,72.21
2022-12-18T03:46:07.984Z,72.37
2022-12-18T03:48:40.460Z,72.49
2022-12-18T03:51:19.371Z,72.36
2022-12-18T03:53:54.863Z,72.42
2022-12-18T03:56:29.668Z,72.44
2022-12-18T03:58:58.949Z,72.37
2022-12-18T04:01:34.851Z,72.63
2022-12-18T04:04:03.630Z,72.48
2022-12-18T04:06:37.522Z,72.47
2022-12-18T04:09:06.045Z,72.68
2022-12-18T04:11:35.893Z,72.75
2022-12-18T04:14:07.079Z,72.64
2022-12-18T04:16:34.688Z,72.95
2022-12-18T04:19:02.686Z,73.00
2022-12-18T04:21:34.230Z,72.96
2022-12-18T04:24:01.167Z,72.89
2022-12-18T04:26:28.675Z,73.17
2022-12-18T04:29:04.412Z,73.03
2022-12-18T04:31:31.313Z,72.94
2022-12-18T04:33:58.298Z,73.18
2022-12-18T04:36:28.696Z,73.25
2022-12-18T04:38:55.632Z,73.48
2022-12-18T04:41:22.968Z,73.29
2022-12-18T04:43:50.113Z,73.39
2022-12-18T04:46:16.996Z,73.48
2022-12-18T04:48:46.911Z,73.54
2022-12-18T04:51:13.804Z,73.68
2022-12-18T04:53:40.865Z,73.47
2022-12-18T04:56:16.240Z,73.25
2022-12-18T04:58:45.075Z,73.46
2022-12-18T05:01:14.562Z,73.43
2022-12-18T05:03:42.526Z,73.57
2022-12-18T05:06:10.556Z,73.74
2022-12-18T05:08:37.292Z,73.68
2022-12-18T05:11:16.817Z,73.54
2022-12-18T05:13:45.514Z,73.57
2022-12-18T05:16:12.979Z,73.51
2022-12-18T05:18:39.919Z,73.48
2022-12-18T05:21:07.059Z,73.36
2022-12-18T05:23:37.679Z,73.41
2022-12-18T05:26:07.146Z,73.42
2022-12-18T05:28:35.880Z,73.42
2022-12-18T05:31:04.100Z,73.72
2022-12-18T05:33:33.077Z,73.65
2022-12-18T05:36:04.942Z,73.70
2022-12-18T05:38:33.553Z,73.63
2022-12-18T05:41:00.377Z,73.61
2022-12-18T05:43:28.237Z,73.55
2022-12-18T05:45:55.561Z,73.56
2022-12-18T05:48:23.295Z,73.64
2022-12-18T05:50:51.409Z,73.55
2022-12-18T05:53:21.074Z,73.53
2022-12-18T05:55:48.655Z,73.69
2022-12-18T05:58:16.785Z,73.66
2022-12-18T06:00:46.057Z,73.65
2022-12-18T06:03:14.642Z,73.66
2022-12-18T06:05:45.025Z,73.59
2022-12-18T06:08:12.939Z,73.51
2022-12-18T06:10:40.760Z,73.55
2022-12-18T06:13:08.609Z,73.50
2022-12-18T06:15:39.054Z,73.45
2022-12-18T06:18:06.015Z,73.34
2022-12-18T06:20:33.916Z,73.56
2022-12-18T06:23:01.175Z,73.80
2022-12-18T06:25:28.280Z,73.71
2022-12-18T06:27:55.801Z,73.70
2022-12-18T06:30:22.657Z,73.69
2022-12-18T06:32:56.120Z,73.63
2022-12-18T06:35:24.446Z,73.52
2022-12-18T06:37:51.300Z,73.65
2022-12-18T06:40:18.309Z,73.62
2022-12-18T06:42:45.140Z,73.50
2022-12-18T06:45:12.675Z,73.57
2022-12-18T06:47:39.492Z,73.80
2022-12-18T06:50:06.799Z,73.81
2022-12-18T06:52:34.676Z,73.88
2022-12-18T06:55:01.925Z,74.00
2022-12-18T06:57:28.928Z,73.84
2022-12-18T06:59:55.713Z,73.96
2022-12-18T07:02:22.414Z,73.69
2022-12-18T07:04:52.271Z,73.80
2022-12-18T07:07:19.115Z,73.92
2022-12-18T07:09:45.856Z,73.55
2022-12-18T07:12:12.732Z,73.61
2022-12-18T07:14:39.421Z,73.86
2022-12-18T07:17:06.992Z,74.06
2022-12-18T07:19:34.085Z,74.07
2022-12-18T07:22:01.547Z,73.98
2022-12-18T07:24:29.449Z,73.85
2022-12-18T07:26:56.072Z,73.79
2022-12-18T07:29:22.692Z,73.70
2022-12-18T07:31:50.263Z,73.61
2022-12-18T07:34:17.721Z,73.44
2022-12-18T07:36:44.429Z,73.48
2022-12-18T07:39:12.770Z,73.33
2022-12-18T07:41:46.695Z,73.68
2022-12-18T07:44:16.150Z,73.87
2022-12-18T07:46:42.888Z,73.83
2022-12-18T07:49:09.601Z,73.75
2022-12-18T07:51:36.195Z,73.52
2022-12-18T07:54:02.890Z,73.64
2022-12-18T07:56:31.135Z,73.60
2022-12-18T07:58:59.997Z,73.63
2022-12-18T08:01:27.157Z,73.25
2022-12-18T08:03:54.267Z,73.32
2022-12-18T08:06:23.767Z,73.28
2022-12-18T08:08:56.082Z,73.46
2022-12-18T08:11:24.479Z,73.68
2022-12-18T08:13:51.428Z,73.58
2022-12-18T08:16:19.295Z,73.57
2022-12-18T08:18:47.032Z,73.41
2022-12-18T08:21:16.242Z,73.25
2022-12-18T08:23:44.059Z,73.30
2022-12-18T08:26:12.551Z,73.22
2022-12-18T08:28:40.539Z,73.21
2022-12-18T08:31:08.250Z,73.16
2022-12-18T08:33:36.574Z,73.09
2022-12-18T08:36:07.203Z,73.51
2022-12-18T08:38:34.558Z,73.49
2022-12-18T08:41:01.914Z,73.65
2022-12-18T08:44:01.524Z,73.52
2022-12-18T08:46:34.102Z,73.54
2022-12-18T08:49:00.853Z,73.56
2022-12-18T08:51:27.943Z,73.35
2022-12-18T08:53:54.739Z,73.25
2022-12-18T08:56:21.483Z,73.34
2022-12-18T08:58:48.327Z,73.22
2022-12-18T09:01:15.117Z,73.18
2022-12-18T09:03:42.375Z,73.25
2022-12-18T09:06:09.680Z,73.38
2022-12-18T09:08:38.108Z,73.51
2022-12-18T09:11:05.368Z,73.44
2022-12-18T09:13:32.138Z,73.55
2022-12-18T09:15:59.102Z,73.58
2022-12-18T09:18:26.110Z,73.36
2022-12-18T09:20:54.019Z,72.55
2022-12-18T09:23:22.100Z,72.16
2022-12-18T09:25:48.929Z,71.97
2022-12-18T09:28:18.684Z,71.52
2022-12-18T09:30:49.825Z,71.21
2022-12-18T09:33:17.557Z,71.02
2022-12-18T09:35:45.565Z,70.64
2022-12-18T09:38:18.015Z,70.53
2022-12-18T09:40:48.540Z,70.18
2022-12-18T09:43:23.377Z,69.85
2022-12-18T09:45:59.532Z,69.29
2022-12-18T09:48:37.626Z,68.95
2022-12-18T09:51:23.699Z,69.04
2022-12-18T09:54:00.225Z,68.52
2022-12-18T09:56:29.604Z,68.71
2022-12-18T09:59:01.280Z,68.64
2022-12-18T10:01:38.776Z,68.45
2022-12-18T10:04:09.843Z,68.37
2022-12-18T10:07:04.348Z,68.63
2022-12-18T10:09:39.769Z,68.58
2022-12-18T10:12:33.786Z,68.35
2022-12-18T10:15:23.416Z,68.13
2022-12-18T10:18:00.267Z,67.57
2022-12-18T10:20:49.970Z,67.53
2022-12-18T10:23:48.154Z,67.36
2022-12-18T10:26:15.720Z,66.47
2022-12-18T10:28:45.280Z,66.13
2022-12-18T10:31:20.930Z,66.12
2022-12-18T10:33:51.158Z,65.74
2022-12-18T10:36:17.790Z,65.58
2022-12-18T10:38:44.619Z,65.83
2022-12-18T10:41:23.046Z,65.62
2022-12-18T10:44:09.711Z,65.36
2022-12-18T10:46:36.694Z,64.43
2022-12-18T10:49:03.812Z,64.43
2022-12-18T10:51:38.449Z,64.65
2022-12-18T10:54:17.569Z,65.29
2022-12-18T10:56:45.138Z,65.13
2022-12-18T10:59:15.908Z,64.89
2022-12-18T11:01:56.244Z,64.42
2022-12-18T11:04:24.464Z,64.13
2022-12-18T11:07:11.318Z,63.81
2022-12-18T11:09:40.582Z,63.15
2022-12-18T11:12:18.759Z,62.96
2022-12-18T11:14:51.564Z,62.83
2022-12-18T11:17:32.388Z,61.98
2022-12-18T11:20:04.867Z,62.55
2022-12-18T11:22:33.925Z,62.60
2022-12-18T11:25:32.347Z,62.11
2022-12-18T11:28:27.623Z,61.65
2022-12-18T11:31:11.024Z,62.04
2022-12-18T11:33:53.181Z,62.31
2022-12-18T11:36:33.997Z,61.90
2022-12-18T11:39:10.948Z,62.13
2022-12-18T11:42:06.675Z,61.88
2022-12-18T11:44:59.339Z,60.86
2022-12-18T11:47:53.405Z,61.94
2022-12-18T11:50:25.880Z,62.37
2022-12-18T11:52:56.695Z,62.42
2022-12-18T11:55:34.316Z,62.24
2022-12-18T11:58:10.964Z,62.73
2022-12-18T12:01:01.368Z,63.06
2022-12-18T12:03:31.273Z,62.55
2022-12-18T12:06:16.656Z,62.82
2022-12-18T12:09:19.473Z,61.84
2022-12-18T12:12:01.098Z,61.88
2022-12-18T12:14:45.872Z,62.34
2022-12-18T12:17:31.008Z,62.04
2022-12-18T12:20:12.080Z,61.95
2022-12-18T12:22:59.611Z,62.16
2022-12-18T12:25:32.702Z,62.35
2022-12-18T12:28:21.190Z,62.44
2022-12-18T12:31:02.064Z,62.37
2022-12-18T12:33:58.056Z,62.83
2022-12-18T12:36:35.930Z,62.47
2022-12-18T12:39:09.565Z,62.70
2022-12-18T12:41:57.481Z,63.04
2022-12-18T12:44:37.046Z,62.78
2022-12-18T12:47:14.947Z,62.91
2022-12-18T12:49:49.297Z,63.66
2022-12-18T12:52:37.056Z,64.14
2022-12-18T12:55:13.188Z,63.77
2022-12-18T12:57:52.460Z,63.81
2022-12-18T13:00:21.509Z,63.88
2022-12-18T13:03:23.532Z,63.81
2022-12-18T13:06:05.836Z,63.90
2022-12-18T13:08:54.473Z,64.00
2022-12-18T13:12:02.219Z,64.13
2022-12-18T13:14:36.708Z,64.37
2022-12-18T13:17:20.300Z,64.30
2022-12-18T13:20:09.703Z,64.05
2022-12-18T13:22:47.112Z,63.86
2022-12-18T13:25:37.199Z,64.03
2022-12-18T13:28:13.699Z,63.84
2022-12-18T13:30:47.022Z,63.87
2022-12-18T13:33:22.981Z,64.01
2022-12-18T13:35:50.247Z,63.92
2022-12-18T13:38:24.250Z,63.73
2022-12-18T13:40:50.989Z,63.69
2022-12-18T13:43:21.089Z,63.65
2022-12-18T13:46:18.165Z,63.82
2022-12-18T13:49:02.146Z,64.02
2022-12-18T13:51:32.007Z,64.28
2022-12-18T13:54:19.863Z,64.09
2022-12-18T13:56:48.960Z,63.91
2022-12-18T13:59:23.242Z,63.67
2022-12-18T14:01:55.882Z,63.45
2022-12-18T14:04:24.826Z,63.43
2022-12-18T14:06:56.255Z,63.39
2022-12-18T14:09:27.587Z,63.25
2022-12-18T14:12:15.454Z,62.93
2022-12-18T14:14:46.188Z,62.93
2022-12-18T14:17:13.536Z,63.09
2022-12-18T14:19:49.768Z,63.05
2022-12-18T14:22:22.842Z,63.19
2022-12-18T14:25:11.821Z,63.34
2022-12-18T14:27:42.401Z,63.41
2022-12-18T14:30:45.383Z,63.52
2022-12-18T14:33:19.726Z,63.61
2022-12-18T14:35:58.820Z,63.56
2022-12-18T14:38:40.069Z,62.81
2022-12-18T14:41:12.416Z,62.45
2022-12-18T14:43:41.753Z,62.27
2022-12-18T14:46:27.616Z,62.15
2022-12-18T14:48:55.126Z,62.82
2022-12-18T14:51:31.148Z,63.04
2022-12-18T14:54:04.655Z,62.88
2022-12-18T14:56:31.400Z,63.25
2022-12-18T14:59:04.522Z,63.05
2022-12-18T15:01:51.661Z,63.11
2022-12-18T15:04:40.280Z,63.39
2022-12-18T15:07:11.921Z,63.64
2022-12-18T15:09:40.251Z,63.84
2022-12-18T15:12:25.884Z,63.66
2022-12-18T15:14:52.616Z,63.89
2022-12-18T15:17:23.964Z,64.26
2022-12-18T15:19:59.731Z,64.66
2022-12-18T15:22:29.613Z,64.87
2022-12-18T15:24:58.910Z,65.03
2022-12-18T15:27:36.827Z,64.79
2022-12-18T15:30:25.204Z,64.81
2022-12-18T15:32:53.278Z,64.74
2022-12-18T15:35:23.808Z,64.62
2022-12-18T15:37:52.516Z,64.81
2022-12-18T15:40:22.148Z,64.81
2022-12-18T15:43:11.377Z,64.85
2022-12-18T15:45:38.223Z,65.01
2022-12-18T15:48:21.624Z,65.30
2022-12-18T15:50:48.702Z,65.43
2022-12-18T15:53:15.360Z,65.37
2022-12-18T15:56:01.530Z,65.39
2022-12-18T15:58:28.492Z,65.90
2022-12-18T16:00:57.249Z,65.90
2022-12-18T16:03:23.945Z,65.88
2022-12-18T16:05:51.587Z,66.21
2022-12-18T16:08:18.158Z,65.94
2022-12-18T16:10:44.863Z,66.35
2022-12-18T16:13:13.684Z,66.72
2022-12-18T16:15:40.568Z,66.75
2022-12-18T16:18:08.634Z,66.58
2022-12-18T16:20:35.415Z,66.68
2022-12-18T16:23:02.353Z,66.55
2022-12-18T16:25:29.592Z,66.62
2022-12-18T16:27:57.483Z,66.43
2022-12-18T16:30:28.854Z,66.38
2022-12-18T16:32:59.800Z,66.59
2022-12-18T16:35:27.855Z,66.76
2022-12-18T16:37:54.561Z,66.77
2022-12-18T16:40:21.647Z,66.84
2022-12-18T16:42:48.628Z,66.98
2022-12-18T16:45:18.215Z,66.85
2022-12-18T16:47:45.352Z,66.84
2022-12-18T16:50:12.431Z,67.21
2022-12-18T16:52:39.730Z,67.06
2022-12-18T16:55:07.014Z,67.18
2022-12-18T16:57:34.065Z,67.67
2022-12-18T17:00:05.287Z,67.71
2022-12-18T17:02:33.501Z,67.81
2022-12-18T17:05:01.045Z,67.78
2022-12-18T17:07:29.069Z,67.89
2022-12-18T17:09:56.378Z,67.65
2022-12-18T17:12:23.465Z,67.60
2022-12-18T17:14:50.199Z,67.48
2022-12-18T17:17:22.806Z,67.49
2022-12-18T17:19:52.193Z,67.59
2022-12-18T17:22:19.836Z,67.65
2022-12-18T17:24:47.590Z,67.63
2022-12-18T17:27:14.985Z,67.78
2022-12-18T17:29:47.377Z,67.94
2022-12-18T17:32:15.452Z,67.86
2022-12-18T17:34:42.112Z,67.91
2022-12-18T17:37:09.788Z,67.93
2022-12-18T17:39:36.765Z,68.10
2022-12-18T17:42:04.009Z,68.23
2022-12-18T17:44:32.061Z,68.51
2022-12-18T17:46:58.869Z,68.32
2022-12-18T17:49:25.596Z,68.32
2022-12-18T17:51:52.188Z,68.20
2022-12-18T17:54:18.915Z,68.28
2022-12-18T17:56:45.920Z,67.81
2022-12-18T17:59:13.231Z,68.08
2022-12-18T18:01:44.446Z,67.92
2022-12-18T18:04:13.229Z,68.15
2022-12-18T18:06:40.647Z,67.96
2022-12-18T18:09:16.051Z,68.07
2022-12-18T18:12:04.295Z,68.07
2022-12-18T18:14:31.433Z,68.38
2022-12-18T18:17:01.760Z,68.50
2022-12-18T18:19:33.472Z,68.29
2022-12-18T18:22:01.439Z,68.39
2022-12-18T18:24:29.090Z,68.71
2022-12-18T18:26:55.883Z,68.86
2022-12-18T18:29:26.899Z,68.87
2022-12-18T18:31:54.631Z,68.60
2022-12-18T18:34:27.216Z,68.61
2022-12-18T18:36:54.129Z,68.55
2022-12-18T18:39:21.222Z,68.56
2022-12-18T18:41:48.798Z,68.30
2022-12-18T18:44:17.305Z,68.25
2022-12-18T18:46:45.039Z,68.28
2022-12-18T18:49:13.582Z,68.31
2022-12-18T18:51:41.414Z,68.30
2022-12-18T18:54:08.345Z,68.30
2022-12-18T18:56:56.109Z,68.22
2022-12-18T18:59:29.139Z,68.43
2022-12-18T19:01:59.017Z,68.42
2022-12-18T19:04:25.823Z,68.55
2022-12-18T19:06:53.013Z,68.85
2022-12-18T19:09:21.856Z,68.93
2022-12-18T19:12:07.590Z,68.94
2022-12-18T19:14:34.293Z,68.97
2022-12-18T19:17:00.996Z,68.93
2022-12-18T19:19:28.352Z,68.86
2022-12-18T19:21:55.434Z,68.57
2022-12-18T19:24:22.654Z,68.34
2022-12-18T19:26:49.649Z,68.67
2022-12-18T19:29:16.264Z,68.36
2022-12-18T19:31:43.088Z,68.61
2022-12-18T19:34:09.880Z,68.60
2022-12-18T19:36:39.032Z,68.42
2022-12-18T19:39:14.801Z,68.71
2022-12-18T19:41:42.992Z,68.58
2022-12-18T19:44:15.483Z,68.79
2022-12-18T19:46:43.055Z,68.74
2022-12-18T19:49:11.375Z,68.72
2022-12-18T19:51:43.491Z,68.97
2022-12-18T19:54:16.424Z,68.97
2022-12-18T19:56:44.132Z,68.88
2022-12-18T19:59:10.734Z,68.73
2022-12-18T20:01:37.555Z,68.90
2022-12-18T20:04:05.114Z,68.64
2022-12-18T20:06:46.765Z,68.67
2022-12-18T20:09:13.783Z,68.61
2022-12-18T20:11:41.972Z,68.45
2022-12-18T20:14:14.865Z,68.45
2022-12-18T20:16:44.892Z,68.41
2022-12-18T20:19:13.103Z,68.29
2022-12-18T20:21:41.498Z,68.40
2022-12-18T20:24:09.015Z,68.38
2022-12-18T20:26:35.759Z,68.39
2022-12-18T20:29:02.411Z,68.42
2022-12-18T20:31:29.218Z,68.49
2022-12-18T20:34:00.315Z,68.58
2022-12-18T20:36:29.490Z,68.89
2022-12-18T20:38:59.198Z,69.05
2022-12-18T20:41:37.205Z,69.15
2022-12-18T20:44:10.291Z,68.98
2022-12-18T20:46:50.574Z,68.88
2022-12-18T20:49:17.256Z,68.70
2022-12-18T20:51:43.864Z,68.69
2022-12-18T20:54:15.197Z,68.56
2022-12-18T20:56:45.104Z,68.40
2022-12-18T20:59:13.740Z,68.48
2022-12-18T21:01:48.163Z,68.55
2022-12-18T21:04:18.428Z,68.39
2022-12-18T21:06:50.998Z,68.61
2022-12-18T21:09:20.630Z,68.73
2022-12-18T21:12:06.110Z,68.48
2022-12-18T21:14:33.056Z,68.77
2022-12-18T21:17:03.147Z,68.64
2022-12-18T21:19:30.033Z,68.78
2022-12-18T21:21:57.803Z,69.05
2022-12-18T21:24:25.220Z,69.26
2022-12-18T21:26:52.400Z,69.14
2022-12-18T21:29:24.778Z,69.10
2022-12-18T21:31:54.559Z,69.05
2022-12-18T21:34:27.598Z,68.95
2022-12-18T21:36:56.482Z,68.73
2022-12-18T21:39:25.217Z,68.62
2022-12-18T21:42:11.261Z,68.74
2022-12-18T21:44:42.271Z,68.66
2022-12-18T21:47:21.734Z,68.61
2022-12-18T21:49:52.185Z,68.72
2022-12-18T21:52:19.523Z,68.62
2022-12-18T21:54:48.313Z,68.70
2022-12-18T21:57:14.944Z,68.67
2022-12-18T21:59:43.730Z,68.76
2022-12-18T22:02:17.132Z,68.81
2022-12-18T22:04:44.568Z,69.11
2022-12-18T22:07:11.914Z,69.24
2022-12-18T22:09:39.009Z,69.22
2022-12-18T22:12:06.728Z,69.10
2022-12-18T22:14:33.411Z,69.04
2022-12-18T22:17:00.107Z,69.01
2022-12-18T22:19:28.280Z,68.94
2022-12-18T22:21:55.353Z,68.70
2022-12-18T22:24:26.953Z,68.92
2022-12-18T22:27:01.698Z,68.88
2022-12-18T22:29:48.164Z,68.80
2022-12-18T22:32:29.083Z,68.88
2022-12-18T22:35:08.361Z,69.06
2022-12-18T22:37:37.229Z,69.15
2022-12-18T22:40:06.088Z,69.00
2022-12-18T22:42:34.244Z,69.16
2022-12-18T22:45:00.987Z,69.13
2022-12-18T22:47:30.054Z,69.46
2022-12-18T22:49:58.279Z,69.42
2022-12-18T22:52:25.357Z,69.50
2022-12-18T22:54:53.599Z,69.37
2022-12-18T22:57:22.272Z,69.16
2022-12-18T22:59:50.248Z,69.13
2022-12-18T23:02:20.882Z,68.91
2022-12-18T23:04:47.952Z,68.97
2022-12-18T23:07:15.986Z,68.75
2022-12-18T23:09:42.676Z,68.56
2022-12-18T23:12:15.079Z,68.75
2022-12-18T23:14:42.479Z,68.60
2022-12-18T23:17:12.224Z,68.62
2022-12-18T23:19:49.366Z,68.75
2022-12-18T23:22:17.476Z,68.60
2022-12-18T23:24:44.391Z,68.74
2022-12-18T23:27:11.992Z,68.23
2022-12-18T23:29:40.036Z,68.31
2022-12-18T23:32:07.545Z,67.86
2022-12-18T23:34:34.434Z,68.14
2022-12-18T23:37:01.182Z,68.34
2022-12-18T23:39:28.813Z,68.29
2022-12-18T23:42:00.634Z,68.35
2022-12-18T23:44:27.930Z,68.10
2022-12-18T23:46:54.902Z,68.06
2022-12-18T23:49:21.933Z,67.87
2022-12-18T23:51:49.171Z,67.70
2022-12-18T23:54:16.223Z,67.58
2022-12-18T23:56:43.249Z,67.69
2022-12-18T23:59:10.208Z,67.75
